sensor_id;sensor_type;location;lat;lon;timestamp;P1;durP1;ratioP1;P2;durP2;ratioP2
11839;SDS011;5979;50.800;4.904;2022-12-26T00:01:22;4.63;;;3.72;;
11839;SDS011;5979;50.800;4.904;2022-12-26T00:03:49;4.22;;;3.88;;
11839;SDS011;5979;50.800;4.904;2022-12-26T00:06:16;6.38;;;4.38;;
11839;SDS011;5979;50.800;4.904;2022-12-26T00:08:44;4.75;;;4.20;;
11839;SDS011;5979;50.800;4.904;2022-12-26T00:11:10;4.88;;;4.40;;
11839;SDS011;5979;50.800;4.904;2022-12-26T00:13:36;4.43;;;4.13;;
11839;SDS011;5979;50.800;4.904;2022-12-26T00:16:08;4.50;;;4.10;;
11839;SDS011;5979;50.800;4.904;2022-12-26T00:18:36;3.85;;;3.60;;
11839;SDS011;5979;50.800;4.904;2022-12-26T00:21:03;3.90;;;3.60;;
11839;SDS011;5979;50.800;4.904;2022-12-26T00:23:30;3.85;;;3.45;;
11839;SDS011;5979;50.800;4.904;2022-12-26T00:26:00;3.78;;;3.50;;
11839;SDS011;5979;50.800;4.904;2022-12-26T00:28:30;3.88;;;3.55;;
11839;SDS011;5979;50.800;4.904;2022-12-26T00:30:55;3.85;;;3.55;;
11839;SDS011;5979;50.800;4.904;2022-12-26T00:33:21;3.88;;;3.58;;
11839;SDS011;5979;50.800;4.904;2022-12-26T00:35:47;3.60;;;3.33;;
11839;SDS011;5979;50.800;4.904;2022-12-26T00:38:12;3.38;;;3.17;;
11839;SDS011;5979;50.800;4.904;2022-12-26T00:40:38;4.13;;;3.47;;
11839;SDS011;5979;50.800;4.904;2022-12-26T00:43:07;3.90;;;3.63;;
11839;SDS011;5979;50.800;4.904;2022-12-26T00:45:33;3.78;;;3.47;;
11839;SDS011;5979;50.800;4.904;2022-12-26T00:47:59;3.53;;;3.33;;
11839;SDS011;5979;50.800;4.904;2022-12-26T00:50:25;4.50;;;4.10;;
11839;SDS011;5979;50.800;4.904;2022-12-26T00:52:51;3.17;;;2.97;;
11839;SDS011;5979;50.800;4.904;2022-12-26T00:55:17;3.58;;;3.38;;
11839;SDS011;5979;50.800;4.904;2022-12-26T00:57:43;3.67;;;3.38;;
11839;SDS011;5979;50.800;4.904;2022-12-26T01:00:09;4.75;;;4.18;;
11839;SDS011;5979;50.800;4.904;2022-12-26T01:02:35;4.75;;;4.35;;
11839;SDS011;5979;50.800;4.904;2022-12-26T01:05:04;4.65;;;4.13;;
11839;SDS011;5979;50.800;4.904;2022-12-26T01:07:34;4.85;;;4.40;;
11839;SDS011;5979;50.800;4.904;2022-12-26T01:10:02;4.80;;;4.32;;
11839;SDS011;5979;50.800;4.904;2022-12-26T01:12:29;5.20;;;4.70;;
11839;SDS011;5979;50.800;4.904;2022-12-26T01:14:55;5.32;;;4.93;;
11839;SDS011;5979;50.800;4.904;2022-12-26T01:17:22;5.93;;;5.45;;
11839;SDS011;5979;50.800;4.904;2022-12-26T01:19:48;6.28;;;5.30;;
11839;SDS011;5979;50.800;4.904;2022-12-26T01:22:14;6.97;;;6.40;;
11839;SDS011;5979;50.800;4.904;2022-12-26T01:24:39;6.50;;;6.00;;
11839;SDS011;5979;50.800;4.904;2022-12-26T01:27:05;6.03;;;5.60;;
11839;SDS011;5979;50.800;4.904;2022-12-26T01:29:31;6.30;;;5.78;;
11839;SDS011;5979;50.800;4.904;2022-12-26T01:31:57;6.85;;;6.25;;
11839;SDS011;5979;50.800;4.904;2022-12-26T01:34:22;6.30;;;5.80;;
11839;SDS011;5979;50.800;4.904;2022-12-26T01:36:48;6.15;;;5.47;;
11839;SDS011;5979;50.800;4.904;2022-12-26T01:39:15;5.60;;;5.20;;
11839;SDS011;5979;50.800;4.904;2022-12-26T01:41:41;7.05;;;6.03;;
11839;SDS011;5979;50.800;4.904;2022-12-26T01:44:53;6.43;;;5.93;;
11839;SDS011;5979;50.800;4.904;2022-12-26T01:47:11;5.63;;;5.15;;
11839;SDS011;5979;50.800;4.904;2022-12-26T01:49:41;6.38;;;5.82;;
11839;SDS011;5979;50.800;4.904;2022-12-26T01:52:11;5.80;;;5.07;;
11839;SDS011;5979;50.800;4.904;2022-12-26T01:54:46;5.47;;;5.07;;
11839;SDS011;5979;50.800;4.904;2022-12-26T02:00:13;4.72;;;4.43;;
11839;SDS011;5979;50.800;4.904;2022-12-26T02:02:39;5.00;;;4.60;;
11839;SDS011;5979;50.800;4.904;2022-12-26T02:05:25;4.55;;;4.18;;
11839;SDS011;5979;50.800;4.904;2022-12-26T02:08:20;4.70;;;4.30;;
11839;SDS011;5979;50.800;4.904;2022-12-26T02:10:55;3.75;;;3.45;;
11839;SDS011;5979;50.800;4.904;2022-12-26T02:13:35;3.97;;;3.70;;
11839;SDS011;5979;50.800;4.904;2022-12-26T02:16:03;5.22;;;3.40;;
11839;SDS011;5979;50.800;4.904;2022-12-26T02:18:31;3.53;;;3.25;;
11839;SDS011;5979;50.800;4.904;2022-12-26T02:34:57;3.70;;;3.40;;
11839;SDS011;5979;50.800;4.904;2022-12-26T02:49:18;3.83;;;3.53;;
11839;SDS011;5979;50.800;4.904;2022-12-26T02:54:52;3.22;;;3.03;;
11839;SDS011;5979;50.800;4.904;2022-12-26T02:57:48;3.85;;;3.50;;
11839;SDS011;5979;50.800;4.904;2022-12-26T03:00:41;4.00;;;3.72;;
11839;SDS011;5979;50.800;4.904;2022-12-26T03:03:29;3.67;;;3.47;;
11839;SDS011;5979;50.800;4.904;2022-12-26T03:06:25;4.05;;;3.75;;
11839;SDS011;5979;50.800;4.904;2022-12-26T03:09:13;4.28;;;3.97;;
11839;SDS011;5979;50.800;4.904;2022-12-26T03:12:03;4.13;;;3.92;;
11839;SDS011;5979;50.800;4.904;2022-12-26T03:15:03;3.85;;;3.65;;
11839;SDS011;5979;50.800;4.904;2022-12-26T03:17:35;4.03;;;3.72;;
11839;SDS011;5979;50.800;4.904;2022-12-26T03:20:10;3.35;;;3.15;;
11839;SDS011;5979;50.800;4.904;2022-12-26T03:22:41;4.18;;;3.88;;
11839;SDS011;5979;50.800;4.904;2022-12-26T03:25:12;4.60;;;4.20;;
11839;SDS011;5979;50.800;4.904;2022-12-26T03:28:02;4.00;;;3.78;;
11839;SDS011;5979;50.800;4.904;2022-12-26T03:30:29;4.68;;;4.38;;
11839;SDS011;5979;50.800;4.904;2022-12-26T03:33:14;4.75;;;3.90;;
11839;SDS011;5979;50.800;4.904;2022-12-26T03:35:59;4.00;;;3.80;;
11839;SDS011;5979;50.800;4.904;2022-12-26T03:39:09;4.32;;;3.90;;
11839;SDS011;5979;50.800;4.904;2022-12-26T03:41:33;3.67;;;3.38;;
11839;SDS011;5979;50.800;4.904;2022-12-26T03:48:00;4.10;;;3.38;;
11839;SDS011;5979;50.800;4.904;2022-12-26T03:50:34;3.78;;;3.40;;
11839;SDS011;5979;50.800;4.904;2022-12-26T03:54:11;3.60;;;3.30;;
11839;SDS011;5979;50.800;4.904;2022-12-26T03:56:37;3.65;;;3.22;;
11839;SDS011;5979;50.800;4.904;2022-12-26T03:59:47;2.88;;;2.60;;
11839;SDS011;5979;50.800;4.904;2022-12-26T04:02:36;3.15;;;2.95;;
11839;SDS011;5979;50.800;4.904;2022-12-26T04:05:23;2.70;;;2.50;;
11839;SDS011;5979;50.800;4.904;2022-12-26T04:08:12;2.88;;;2.72;;
11839;SDS011;5979;50.800;4.904;2022-12-26T04:11:02;2.55;;;2.40;;
11839;SDS011;5979;50.800;4.904;2022-12-26T04:20:19;3.65;;;2.58;;
11839;SDS011;5979;50.800;4.904;2022-12-26T04:22:55;3.00;;;2.80;;
11839;SDS011;5979;50.800;4.904;2022-12-26T04:28:47;3.17;;;2.58;;
11839;SDS011;5979;50.800;4.904;2022-12-26T04:31:47;2.92;;;2.70;;
11839;SDS011;5979;50.800;4.904;2022-12-26T04:37:28;2.05;;;1.95;;
11839;SDS011;5979;50.800;4.904;2022-12-26T04:40:15;2.40;;;2.22;;
11839;SDS011;5979;50.800;4.904;2022-12-26T04:43:03;3.03;;;2.05;;
11839;SDS011;5979;50.800;4.904;2022-12-26T04:45:49;2.08;;;1.98;;
11839;SDS011;5979;50.800;4.904;2022-12-26T04:48:16;2.70;;;2.50;;
11839;SDS011;5979;50.800;4.904;2022-12-26T04:51:00;2.22;;;2.13;;
11839;SDS011;5979;50.800;4.904;2022-12-26T04:53:26;2.28;;;2.17;;
11839;SDS011;5979;50.800;4.904;2022-12-26T04:55:51;1.52;;;1.52;;
11839;SDS011;5979;50.800;4.904;2022-12-26T04:58:17;2.17;;;2.08;;
11839;SDS011;5979;50.800;4.904;2022-12-26T05:00:43;1.85;;;1.75;;
11839;SDS011;5979;50.800;4.904;2022-12-26T05:03:12;2.20;;;2.10;;
11839;SDS011;5979;50.800;4.904;2022-12-26T05:05:57;2.15;;;2.05;;
11839;SDS011;5979;50.800;4.904;2022-12-26T05:08:42;2.20;;;2.00;;
11839;SDS011;5979;50.800;4.904;2022-12-26T05:11:29;2.20;;;2.10;;
11839;SDS011;5979;50.800;4.904;2022-12-26T05:13:56;1.90;;;1.80;;
11839;SDS011;5979;50.800;4.904;2022-12-26T05:16:23;2.10;;;2.00;;
11839;SDS011;5979;50.800;4.904;2022-12-26T05:19:12;1.90;;;1.80;;
11839;SDS011;5979;50.800;4.904;2022-12-26T05:21:57;1.90;;;1.80;;
11839;SDS011;5979;50.800;4.904;2022-12-26T05:24:43;1.60;;;1.50;;
11839;SDS011;5979;50.800;4.904;2022-12-26T05:27:32;2.75;;;1.85;;
11839;SDS011;5979;50.800;4.904;2022-12-26T05:30:21;1.90;;;1.80;;
11839;SDS011;5979;50.800;4.904;2022-12-26T05:32:47;1.63;;;1.52;;
11839;SDS011;5979;50.800;4.904;2022-12-26T05:35:32;1.30;;;1.25;;
11839;SDS011;5979;50.800;4.904;2022-12-26T05:37:59;2.45;;;1.85;;
11839;SDS011;5979;50.800;4.904;2022-12-26T05:40:25;1.25;;;1.25;;
11839;SDS011;5979;50.800;4.904;2022-12-26T05:42:51;1.50;;;1.30;;
11839;SDS011;5979;50.800;4.904;2022-12-26T05:45:16;1.17;;;1.17;;
11839;SDS011;5979;50.800;4.904;2022-12-26T05:47:42;1.50;;;1.40;;
11839;SDS011;5979;50.800;4.904;2022-12-26T05:50:08;1.65;;;1.58;;
11839;SDS011;5979;50.800;4.904;2022-12-26T05:52:33;1.15;;;1.15;;
11839;SDS011;5979;50.800;4.904;2022-12-26T05:54:59;1.42;;;1.30;;
11839;SDS011;5979;50.800;4.904;2022-12-26T05:57:25;1.13;;;1.10;;
11839;SDS011;5979;50.800;4.904;2022-12-26T05:59:50;1.50;;;1.30;;
11839;SDS011;5979;50.800;4.904;2022-12-26T06:02:16;1.27;;;1.17;;
11839;SDS011;5979;50.800;4.904;2022-12-26T06:04:42;1.50;;;1.40;;
11839;SDS011;5979;50.800;4.904;2022-12-26T06:07:07;1.33;;;1.33;;
11839;SDS011;5979;50.800;4.904;2022-12-26T06:09:33;1.27;;;1.17;;
11839;SDS011;5979;50.800;4.904;2022-12-26T06:11:59;1.20;;;1.20;;
11839;SDS011;5979;50.800;4.904;2022-12-26T06:14:24;1.33;;;1.33;;
11839;SDS011;5979;50.800;4.904;2022-12-26T06:16:50;1.30;;;1.30;;
11839;SDS011;5979;50.800;4.904;2022-12-26T06:19:16;1.20;;;1.20;;
11839;SDS011;5979;50.800;4.904;2022-12-26T06:21:42;1.73;;;1.30;;
11839;SDS011;5979;50.800;4.904;2022-12-26T06:24:07;1.40;;;1.30;;
11839;SDS011;5979;50.800;4.904;2022-12-26T06:26:33;1.60;;;1.45;;
11839;SDS011;5979;50.800;4.904;2022-12-26T06:28:59;1.85;;;1.10;;
11839;SDS011;5979;50.800;4.904;2022-12-26T06:31:24;1.88;;;1.40;;
11839;SDS011;5979;50.800;4.904;2022-12-26T06:33:53;1.38;;;1.38;;
11839;SDS011;5979;50.800;4.904;2022-12-26T06:36:21;1.20;;;1.10;;
11839;SDS011;5979;50.800;4.904;2022-12-26T06:38:48;1.42;;;1.38;;
11839;SDS011;5979;50.800;4.904;2022-12-26T06:41:15;0.88;;;0.88;;
11839;SDS011;5979;50.800;4.904;2022-12-26T06:43:42;1.17;;;1.08;;
11839;SDS011;5979;50.800;4.904;2022-12-26T06:46:12;1.15;;;1.05;;
11839;SDS011;5979;50.800;4.904;2022-12-26T06:48:39;4.68;;;1.17;;
11839;SDS011;5979;50.800;4.904;2022-12-26T06:51:06;1.45;;;1.33;;
11839;SDS011;5979;50.800;4.904;2022-12-26T06:53:43;0.88;;;0.88;;
11839;SDS011;5979;50.800;4.904;2022-12-26T06:56:10;1.63;;;1.52;;
11839;SDS011;5979;50.800;4.904;2022-12-26T06:58:40;1.58;;;1.30;;
11839;SDS011;5979;50.800;4.904;2022-12-26T07:01:07;1.40;;;1.10;;
11839;SDS011;5979;50.800;4.904;2022-12-26T07:03:34;1.02;;;1.02;;
11839;SDS011;5979;50.800;4.904;2022-12-26T07:06:04;1.00;;;0.85;;
11839;SDS011;5979;50.800;4.904;2022-12-26T07:08:32;0.90;;;0.90;;
11839;SDS011;5979;50.800;4.904;2022-12-26T07:10:58;1.40;;;1.30;;
11839;SDS011;5979;50.800;4.904;2022-12-26T07:13:24;0.95;;;0.95;;
11839;SDS011;5979;50.800;4.904;2022-12-26T07:15:49;1.15;;;1.10;;
11839;SDS011;5979;50.800;4.904;2022-12-26T07:18:15;2.38;;;1.10;;
11839;SDS011;5979;50.800;4.904;2022-12-26T07:20:41;1.42;;;1.00;;
11839;SDS011;5979;50.800;4.904;2022-12-26T07:23:07;4.03;;;1.08;;
11839;SDS011;5979;50.800;4.904;2022-12-26T07:25:32;1.38;;;1.20;;
11839;SDS011;5979;50.800;4.904;2022-12-26T07:28:00;1.10;;;1.10;;
11839;SDS011;5979;50.800;4.904;2022-12-26T07:30:26;3.03;;;1.30;;
11839;SDS011;5979;50.800;4.904;2022-12-26T07:32:51;1.65;;;1.17;;
11839;SDS011;5979;50.800;4.904;2022-12-26T07:35:17;2.17;;;1.25;;
11839;SDS011;5979;50.800;4.904;2022-12-26T07:37:43;1.30;;;1.27;;
11839;SDS011;5979;50.800;4.904;2022-12-26T07:40:08;1.10;;;1.10;;
11839;SDS011;5979;50.800;4.904;2022-12-26T07:42:35;2.45;;;1.10;;
11839;SDS011;5979;50.800;4.904;2022-12-26T07:45:00;3.67;;;1.50;;
11839;SDS011;5979;50.800;4.904;2022-12-26T07:47:26;1.42;;;1.23;;
11839;SDS011;5979;50.800;4.904;2022-12-26T07:49:52;1.65;;;1.55;;
11839;SDS011;5979;50.800;4.904;2022-12-26T07:52:17;1.30;;;1.30;;
11839;SDS011;5979;50.800;4.904;2022-12-26T07:54:43;1.70;;;1.60;;
11839;SDS011;5979;50.800;4.904;2022-12-26T07:57:09;1.77;;;1.50;;
11839;SDS011;5979;50.800;4.904;2022-12-26T07:59:35;2.42;;;1.30;;
11839;SDS011;5979;50.800;4.904;2022-12-26T08:02:00;1.75;;;1.65;;
11839;SDS011;5979;50.800;4.904;2022-12-26T08:04:29;1.00;;;1.00;;
11839;SDS011;5979;50.800;4.904;2022-12-26T08:06:58;1.33;;;1.23;;
11839;SDS011;5979;50.800;4.904;2022-12-26T08:09:23;2.40;;;1.48;;
11839;SDS011;5979;50.800;4.904;2022-12-26T08:11:49;3.13;;;1.50;;
11839;SDS011;5979;50.800;4.904;2022-12-26T08:14:16;3.50;;;1.30;;
11839;SDS011;5979;50.800;4.904;2022-12-26T08:16:42;2.33;;;1.20;;
11839;SDS011;5979;50.800;4.904;2022-12-26T08:19:08;1.33;;;1.10;;
11839;SDS011;5979;50.800;4.904;2022-12-26T08:21:35;2.15;;;1.48;;
11839;SDS011;5979;50.800;4.904;2022-12-26T08:24:00;2.78;;;1.42;;
11839;SDS011;5979;50.800;4.904;2022-12-26T08:26:26;1.25;;;1.25;;
11839;SDS011;5979;50.800;4.904;2022-12-26T08:28:53;2.47;;;1.10;;
11839;SDS011;5979;50.800;4.904;2022-12-26T08:31:20;2.95;;;1.40;;
11839;SDS011;5979;50.800;4.904;2022-12-26T08:33:46;1.70;;;1.13;;
11839;SDS011;5979;50.800;4.904;2022-12-26T08:36:13;1.67;;;1.40;;
11839;SDS011;5979;50.800;4.904;2022-12-26T08:38:41;1.25;;;1.20;;
11839;SDS011;5979;50.800;4.904;2022-12-26T08:41:07;1.23;;;1.13;;
11839;SDS011;5979;50.800;4.904;2022-12-26T08:43:33;2.85;;;1.45;;
11839;SDS011;5979;50.800;4.904;2022-12-26T08:46:03;2.20;;;1.70;;
11839;SDS011;5979;50.800;4.904;2022-12-26T08:48:35;2.03;;;1.20;;
11839;SDS011;5979;50.800;4.904;2022-12-26T08:51:06;1.52;;;1.20;;
11839;SDS011;5979;50.800;4.904;2022-12-26T08:53:35;2.10;;;1.27;;
11839;SDS011;5979;50.800;4.904;2022-12-26T08:56:02;3.42;;;1.45;;
11839;SDS011;5979;50.800;4.904;2022-12-26T08:58:30;2.58;;;1.33;;
11839;SDS011;5979;50.800;4.904;2022-12-26T09:01:04;1.92;;;1.40;;
11839;SDS011;5979;50.800;4.904;2022-12-26T09:03:31;2.60;;;1.45;;
11839;SDS011;5979;50.800;4.904;2022-12-26T09:06:00;2.85;;;1.38;;
11839;SDS011;5979;50.800;4.904;2022-12-26T09:08:30;2.90;;;1.38;;
11839;SDS011;5979;50.800;4.904;2022-12-26T09:11:00;2.17;;;1.40;;
11839;SDS011;5979;50.800;4.904;2022-12-26T09:13:29;3.95;;;1.30;;
11839;SDS011;5979;50.800;4.904;2022-12-26T09:16:02;1.20;;;1.20;;
11839;SDS011;5979;50.800;4.904;2022-12-26T09:18:35;1.50;;;1.30;;
11839;SDS011;5979;50.800;4.904;2022-12-26T09:21:02;2.03;;;1.23;;
11839;SDS011;5979;50.800;4.904;2022-12-26T09:23:29;1.48;;;1.17;;
11839;SDS011;5979;50.800;4.904;2022-12-26T09:26:02;1.58;;;1.13;;
11839;SDS011;5979;50.800;4.904;2022-12-26T09:28:28;3.92;;;1.50;;
11839;SDS011;5979;50.800;4.904;2022-12-26T09:30:57;1.65;;;1.48;;
11839;SDS011;5979;50.800;4.904;2022-12-26T09:33:24;1.52;;;1.25;;
11839;SDS011;5979;50.800;4.904;2022-12-26T09:35:50;3.92;;;1.50;;
11839;SDS011;5979;50.800;4.904;2022-12-26T09:38:15;2.17;;;1.35;;
11839;SDS011;5979;50.800;4.904;2022-12-26T09:41:03;3.17;;;1.35;;
11839;SDS011;5979;50.800;4.904;2022-12-26T09:46:29;2.67;;;1.70;;
11839;SDS011;5979;50.800;4.904;2022-12-26T09:51:38;5.57;;;1.58;;
11839;SDS011;5979;50.800;4.904;2022-12-26T09:54:08;3.53;;;1.30;;
11839;SDS011;5979;50.800;4.904;2022-12-26T09:56:42;2.15;;;1.40;;
11839;SDS011;5979;50.800;4.904;2022-12-26T09:59:14;3.38;;;1.90;;
11839;SDS011;5979;50.800;4.904;2022-12-26T10:01:43;2.20;;;1.40;;
11839;SDS011;5979;50.800;4.904;2022-12-26T10:04:15;1.88;;;1.33;;
11839;SDS011;5979;50.800;4.904;2022-12-26T10:06:47;3.38;;;1.35;;
11839;SDS011;5979;50.800;4.904;2022-12-26T10:09:23;2.88;;;1.30;;
11839;SDS011;5979;50.800;4.904;2022-12-26T10:28:48;1.90;;;1.30;;
11839;SDS011;5979;50.800;4.904;2022-12-26T10:31:29;2.35;;;1.27;;
11839;SDS011;5979;50.800;4.904;2022-12-26T10:42:44;1.30;;;1.30;;
11839;SDS011;5979;50.800;4.904;2022-12-26T10:45:15;2.20;;;1.52;;
11839;SDS011;5979;50.800;4.904;2022-12-26T10:47:41;5.03;;;1.60;;
11839;SDS011;5979;50.800;4.904;2022-12-26T10:50:17;2.78;;;1.50;;
11839;SDS011;5979;50.800;4.904;2022-12-26T10:52:45;2.15;;;1.40;;
11839;SDS011;5979;50.800;4.904;2022-12-26T10:55:15;2.20;;;1.40;;
11839;SDS011;5979;50.800;4.904;2022-12-26T10:57:43;4.45;;;1.50;;
11839;SDS011;5979;50.800;4.904;2022-12-26T11:00:24;1.58;;;1.48;;
11839;SDS011;5979;50.800;4.904;2022-12-26T11:03:02;1.45;;;1.35;;
11839;SDS011;5979;50.800;4.904;2022-12-26T11:05:30;2.50;;;1.30;;
11839;SDS011;5979;50.800;4.904;2022-12-26T11:08:05;4.45;;;1.50;;
11839;SDS011;5979;50.800;4.904;2022-12-26T11:10:46;2.40;;;1.55;;
11839;SDS011;5979;50.800;4.904;2022-12-26T11:13:54;2.88;;;1.80;;
11839;SDS011;5979;50.800;4.904;2022-12-26T11:16:24;2.92;;;1.63;;
11839;SDS011;5979;50.800;4.904;2022-12-26T11:18:53;1.63;;;1.52;;
11839;SDS011;5979;50.800;4.904;2022-12-26T11:21:21;2.25;;;1.00;;
11839;SDS011;5979;50.800;4.904;2022-12-26T11:23:52;3.70;;;1.20;;
11839;SDS011;5979;50.800;4.904;2022-12-26T11:26:41;2.20;;;1.08;;
11839;SDS011;5979;50.800;4.904;2022-12-26T11:29:11;2.65;;;1.10;;
11839;SDS011;5979;50.800;4.904;2022-12-26T11:31:43;1.95;;;1.30;;
11839;SDS011;5979;50.800;4.904;2022-12-26T11:34:23;1.67;;;1.20;;
11839;SDS011;5979;50.800;4.904;2022-12-26T11:36:58;3.42;;;1.33;;
11839;SDS011;5979;50.800;4.904;2022-12-26T11:39:26;4.28;;;1.38;;
11839;SDS011;5979;50.800;4.904;2022-12-26T11:41:57;3.97;;;2.22;;
11839;SDS011;5979;50.800;4.904;2022-12-26T11:44:30;3.30;;;1.95;;
11839;SDS011;5979;50.800;4.904;2022-12-26T11:55:32;1.92;;;1.60;;
11839;SDS011;5979;50.800;4.904;2022-12-26T11:58:21;2.20;;;1.60;;
11839;SDS011;5979;50.800;4.904;2022-12-26T12:09:11;4.13;;;1.45;;
11839;SDS011;5979;50.800;4.904;2022-12-26T12:12:14;2.00;;;1.63;;
11839;SDS011;5979;50.800;4.904;2022-12-26T12:15:00;3.80;;;2.03;;
11839;SDS011;5979;50.800;4.904;2022-12-26T12:17:47;4.55;;;1.40;;
11839;SDS011;5979;50.800;4.904;2022-12-26T12:20:32;1.55;;;1.20;;
11839;SDS011;5979;50.800;4.904;2022-12-26T12:28:59;2.03;;;1.42;;
11839;SDS011;5979;50.800;4.904;2022-12-26T12:45:18;4.07;;;1.40;;
11839;SDS011;5979;50.800;4.904;2022-12-26T12:50:23;3.38;;;1.75;;
11839;SDS011;5979;50.800;4.904;2022-12-26T12:52:56;4.03;;;1.63;;
11839;SDS011;5979;50.800;4.904;2022-12-26T13:00:51;3.30;;;1.40;;
11839;SDS011;5979;50.800;4.904;2022-12-26T13:11:03;3.78;;;1.40;;
11839;SDS011;5979;50.800;4.904;2022-12-26T13:13:39;2.25;;;1.27;;
11839;SDS011;5979;50.800;4.904;2022-12-26T13:16:26;5.93;;;1.50;;
11839;SDS011;5979;50.800;4.904;2022-12-26T13:18:57;1.70;;;1.45;;
11839;SDS011;5979;50.800;4.904;2022-12-26T13:21:27;1.70;;;1.60;;
11839;SDS011;5979;50.800;4.904;2022-12-26T13:24:39;3.67;;;1.60;;
11839;SDS011;5979;50.800;4.904;2022-12-26T13:27:17;5.60;;;1.63;;
11839;SDS011;5979;50.800;4.904;2022-12-26T13:29:49;4.85;;;3.15;;
11839;SDS011;5979;50.800;4.904;2022-12-26T13:32:23;5.05;;;1.60;;
11839;SDS011;5979;50.800;4.904;2022-12-26T13:34:50;4.35;;;1.90;;
11839;SDS011;5979;50.800;4.904;2022-12-26T13:42:46;4.35;;;1.83;;
11839;SDS011;5979;50.800;4.904;2022-12-26T13:51:39;6.07;;;2.55;;
11839;SDS011;5979;50.800;4.904;2022-12-26T13:53:30;2.53;;;1.83;;
11839;SDS011;5979;50.800;4.904;2022-12-26T13:55:58;6.95;;;1.92;;
11839;SDS011;5979;50.800;4.904;2022-12-26T14:15:22;4.90;;;1.50;;
11839;SDS011;5979;50.800;4.904;2022-12-26T14:23:44;4.05;;;2.22;;
11839;SDS011;5979;50.800;4.904;2022-12-26T14:29:08;9.30;;;2.70;;
11839;SDS011;5979;50.800;4.904;2022-12-26T14:37:33;5.38;;;1.90;;
11839;SDS011;5979;50.800;4.904;2022-12-26T14:40:26;7.95;;;2.55;;
11839;SDS011;5979;50.800;4.904;2022-12-26T14:50:45;4.28;;;1.77;;
11839;SDS011;5979;50.800;4.904;2022-12-26T14:55:48;4.75;;;2.00;;
11839;SDS011;5979;50.800;4.904;2022-12-26T14:58:58;7.53;;;2.35;;
11839;SDS011;5979;50.800;4.904;2022-12-26T15:17:27;8.15;;;2.17;;
11839;SDS011;5979;50.800;4.904;2022-12-26T15:34:39;6.60;;;1.80;;
11839;SDS011;5979;50.800;4.904;2022-12-26T15:36:49;4.15;;;1.80;;
11839;SDS011;5979;50.800;4.904;2022-12-26T15:47:36;4.40;;;2.30;;
11839;SDS011;5979;50.800;4.904;2022-12-26T15:55:55;2.22;;;1.50;;
11839;SDS011;5979;50.800;4.904;2022-12-26T16:01:53;4.80;;;1.67;;
11839;SDS011;5979;50.800;4.904;2022-12-26T16:11:58;3.72;;;1.55;;
11839;SDS011;5979;50.800;4.904;2022-12-26T16:14:29;6.85;;;1.95;;
11839;SDS011;5979;50.800;4.904;2022-12-26T16:17:19;2.47;;;1.70;;
11839;SDS011;5979;50.800;4.904;2022-12-26T16:19:49;3.42;;;1.60;;
11839;SDS011;5979;50.800;4.904;2022-12-26T16:25:04;2.33;;;1.52;;
11839;SDS011;5979;50.800;4.904;2022-12-26T16:27:31;3.72;;;1.92;;
11839;SDS011;5979;50.800;4.904;2022-12-26T16:30:02;4.55;;;1.50;;
11839;SDS011;5979;50.800;4.904;2022-12-26T16:32:33;3.42;;;1.50;;
11839;SDS011;5979;50.800;4.904;2022-12-26T16:35:01;4.40;;;2.08;;
11839;SDS011;5979;50.800;4.904;2022-12-26T16:37:28;5.25;;;2.58;;
11839;SDS011;5979;50.800;4.904;2022-12-26T16:42:30;5.68;;;3.97;;
11839;SDS011;5979;50.800;4.904;2022-12-26T16:44:57;7.22;;;4.93;;
11839;SDS011;5979;50.800;4.904;2022-12-26T16:47:23;5.55;;;4.15;;
11839;SDS011;5979;50.800;4.904;2022-12-26T16:49:49;6.75;;;3.90;;
11839;SDS011;5979;50.800;4.904;2022-12-26T16:52:37;3.47;;;2.13;;
11839;SDS011;5979;50.800;4.904;2022-12-26T16:55:22;2.80;;;1.75;;
11839;SDS011;5979;50.800;4.904;2022-12-26T16:58:13;3.00;;;1.80;;
11839;SDS011;5979;50.800;4.904;2022-12-26T17:01:01;2.95;;;1.85;;
11839;SDS011;5979;50.800;4.904;2022-12-26T17:03:33;3.53;;;1.33;;
11839;SDS011;5979;50.800;4.904;2022-12-26T17:09:02;5.10;;;1.80;;
11839;SDS011;5979;50.800;4.904;2022-12-26T17:11:34;3.38;;;1.90;;
11839;SDS011;5979;50.800;4.904;2022-12-26T17:14:02;5.00;;;2.10;;
11839;SDS011;5979;50.800;4.904;2022-12-26T17:16:32;4.18;;;1.95;;
11839;SDS011;5979;50.800;4.904;2022-12-26T17:22:08;2.83;;;2.03;;
11839;SDS011;5979;50.800;4.904;2022-12-26T17:27:45;6.28;;;2.25;;
11839;SDS011;5979;50.800;4.904;2022-12-26T17:30:31;5.43;;;2.30;;
11839;SDS011;5979;50.800;4.904;2022-12-26T17:33:17;2.10;;;1.90;;
11839;SDS011;5979;50.800;4.904;2022-12-26T17:35:54;3.03;;;1.70;;
11839;SDS011;5979;50.800;4.904;2022-12-26T17:38:31;5.28;;;1.85;;
11839;SDS011;5979;50.800;4.904;2022-12-26T17:41:00;5.38;;;1.83;;
11839;SDS011;5979;50.800;4.904;2022-12-26T17:43:31;2.30;;;1.80;;
11839;SDS011;5979;50.800;4.904;2022-12-26T17:45:57;3.97;;;1.88;;
11839;SDS011;5979;50.800;4.904;2022-12-26T17:48:24;3.53;;;1.88;;
11839;SDS011;5979;50.800;4.904;2022-12-26T17:50:52;5.13;;;2.40;;
11839;SDS011;5979;50.800;4.904;2022-12-26T17:55:52;4.50;;;1.65;;
11839;SDS011;5979;50.800;4.904;2022-12-26T17:58:19;2.88;;;2.00;;
11839;SDS011;5979;50.800;4.904;2022-12-26T18:00:45;4.93;;;2.47;;
11839;SDS011;5979;50.800;4.904;2022-12-26T18:03:11;6.32;;;2.53;;
11839;SDS011;5979;50.800;4.904;2022-12-26T18:05:37;6.75;;;2.90;;
11839;SDS011;5979;50.800;4.904;2022-12-26T18:08:03;5.40;;;2.30;;
11839;SDS011;5979;50.800;4.904;2022-12-26T18:10:31;4.85;;;2.78;;
11839;SDS011;5979;50.800;4.904;2022-12-26T18:12:59;6.47;;;2.70;;
11839;SDS011;5979;50.800;4.904;2022-12-26T18:15:25;3.03;;;2.38;;
11839;SDS011;5979;50.800;4.904;2022-12-26T18:17:53;5.28;;;2.45;;
11839;SDS011;5979;50.800;4.904;2022-12-26T18:20:21;7.90;;;2.67;;
11839;SDS011;5979;50.800;4.904;2022-12-26T18:22:52;6.43;;;3.05;;
11839;SDS011;5979;50.800;4.904;2022-12-26T18:25:19;5.28;;;2.50;;
11839;SDS011;5979;50.800;4.904;2022-12-26T18:27:47;8.85;;;2.80;;
11839;SDS011;5979;50.800;4.904;2022-12-26T18:30:15;7.13;;;2.92;;
11839;SDS011;5979;50.800;4.904;2022-12-26T18:32:43;7.65;;;2.67;;
11839;SDS011;5979;50.800;4.904;2022-12-26T18:35:10;4.22;;;2.28;;
11839;SDS011;5979;50.800;4.904;2022-12-26T18:37:36;6.32;;;2.65;;
11839;SDS011;5979;50.800;4.904;2022-12-26T18:40:02;10.00;;;3.10;;
11839;SDS011;5979;50.800;4.904;2022-12-26T18:42:29;4.57;;;2.22;;
11839;SDS011;5979;50.800;4.904;2022-12-26T18:44:55;5.18;;;3.05;;
11839;SDS011;5979;50.800;4.904;2022-12-26T18:47:20;6.82;;;2.80;;
11839;SDS011;5979;50.800;4.904;2022-12-26T18:49:47;3.80;;;2.92;;
11839;SDS011;5979;50.800;4.904;2022-12-26T18:52:13;7.88;;;2.70;;
11839;SDS011;5979;50.800;4.904;2022-12-26T18:54:39;5.43;;;2.92;;
11839;SDS011;5979;50.800;4.904;2022-12-26T18:57:06;7.00;;;2.83;;
11839;SDS011;5979;50.800;4.904;2022-12-26T18:59:36;7.45;;;2.90;;
11839;SDS011;5979;50.800;4.904;2022-12-26T19:02:02;3.88;;;3.00;;
11839;SDS011;5979;50.800;4.904;2022-12-26T19:04:27;6.05;;;3.47;;
11839;SDS011;5979;50.800;4.904;2022-12-26T19:06:53;7.93;;;2.80;;
11839;SDS011;5979;50.800;4.904;2022-12-26T19:09:19;4.80;;;2.80;;
11839;SDS011;5979;50.800;4.904;2022-12-26T19:11:45;5.13;;;2.90;;
11839;SDS011;5979;50.800;4.904;2022-12-26T19:14:19;5.75;;;3.25;;
11839;SDS011;5979;50.800;4.904;2022-12-26T19:16:45;7.32;;;3.00;;
11839;SDS011;5979;50.800;4.904;2022-12-26T19:19:11;8.82;;;3.25;;
11839;SDS011;5979;50.800;4.904;2022-12-26T19:21:37;7.75;;;3.53;;
11839;SDS011;5979;50.800;4.904;2022-12-26T19:24:02;9.07;;;3.78;;
11839;SDS011;5979;50.800;4.904;2022-12-26T19:26:28;7.47;;;3.08;;
11839;SDS011;5979;50.800;4.904;2022-12-26T19:28:54;8.00;;;3.55;;
11839;SDS011;5979;50.800;4.904;2022-12-26T19:31:21;4.82;;;3.67;;
11839;SDS011;5979;50.800;4.904;2022-12-26T19:33:47;9.23;;;3.65;;
11839;SDS011;5979;50.800;4.904;2022-12-26T19:36:13;8.43;;;3.90;;
11839;SDS011;5979;50.800;4.904;2022-12-26T19:38:40;5.75;;;3.83;;
11839;SDS011;5979;50.800;4.904;2022-12-26T19:41:12;6.30;;;3.42;;
11839;SDS011;5979;50.800;4.904;2022-12-26T19:43:38;5.43;;;3.42;;
11839;SDS011;5979;50.800;4.904;2022-12-26T19:46:09;9.10;;;3.60;;